• Join FlightAware (Why Join?)
  • Login
  • US Flag 
04:06AM EST


 

Airport Tracker/Info


-or-


 

Live Flight TrackerFlight Track Log ✈ LOF3357 ✈ 23-Apr-2013 ✈ KIAD - KSTL

Flight Track Log - Related Links

Times and Time Zones

All times are in EDT time to prevent confusion due to time zone crossing. See the LOF3357 flight status page for this flight to view local times or setup timezone preferences in your user account.

Time Position Orientation Groundspeed Altitude Reporting Facility
EDT Latitude Longitude Course Direction KTS MPH feet Rate Location/Type
01:16PM 38.9500 -77.5167 243° Southwest 176 203 1,700  Level Potomac TRACON
01:17PM 38.9167 -77.6000 243° Southwest 238 274 3,000 1,620 Climbing Potomac TRACON
01:18PM 38.9125 -77.6431 263° West 243 280 4,200 1,920 Climbing Washington Center
01:19PM 38.8967 -77.7147 254° West 248 285 6,000 2,040 Climbing Washington Center
01:20PM 38.8928 -77.8133 267° West 255 293 8,300 1,620 Climbing Washington Center
01:21PM 38.8994 -77.9094 275° West 255 293 9,300 1,500 Climbing Washington Center
01:22PM 38.9247 -78.0011 290° West 277 319 11,300 1,200 Climbing Washington Center
01:23PM 38.9433 -78.1164 282° West 303 349 11,800 600 Climbing Washington Center
01:24PM 38.9614 -78.2425 280° West 336 387 12,600 840 Climbing Washington Center
01:25PM 38.9647 -78.3681 272° West 352 405 13,500 900 Climbing Washington Center
01:26PM 38.9700 -78.4992 273° West 362 417 14,400 900 Climbing Washington Center
01:27PM 38.9750 -78.6303 273° West 369 425 15,300 900 Climbing Washington Center
01:28PM 38.9778 -78.7639 272° West 369 425 16,200 900 Climbing Washington Center
01:29PM 38.9806 -78.9003 272° West 374 430 17,100 840 Climbing Washington Center
01:30PM 38.9853 -79.0311 273° West 374 430 17,900 840 Climbing Washington Center
01:31PM 38.9894 -79.1678 272° West 379 436 18,800 900 Climbing Washington Center
01:32PM 38.9917 -79.3039 271° West 384 442 19,800 900 Climbing Washington Center
01:33PM 38.9958 -79.4378 272° West 384 442 20,700 960 Climbing Washington Center
01:34PM 38.9969 -79.5900 271° West 390 449 21,800 960 Climbing Washington Center
01:35PM 39.0006 -79.7292 272° West 390 449 22,700 900 Climbing Washington Center
01:36PM 39.0022 -79.8628 271° West 390 449 23,600 900 Climbing Washington Center
01:37PM 39.0036 -79.9992 271° West 383 441 24,500 840 Climbing Washington Center
01:39PM 39.0061 -80.2250 271° West 375 432 26,200 900 Climbing Indianapolis Center
01:40PM 39.0075 -80.3819 271° West 368 423 27,300 1,020 Climbing Indianapolis Center
01:41PM 39.0103 -80.5097 272° West 362 417 28,300 900 Climbing Indianapolis Center
01:42PM 39.0119 -80.6353 271° West 353 406 29,200 840 Climbing Indianapolis Center
01:43PM 39.0128 -80.7578 271° West 346 398 30,100 900 Climbing Indianapolis Center
01:44PM 39.0389 -80.8706 287° West 339 390 31,100 960 Climbing Indianapolis Center
01:45PM 39.0808 -80.9744 298° West 333 383 32,100 900 Climbing Indianapolis Center
01:46PM 39.1211 -81.0750 297° West 322 371 33,000 420 Climbing Indianapolis Center
01:47PM 39.1736 -81.1997 299° West 331 381 33,000 240 Level Indianapolis Center
01:48PM 39.2178 -81.3089 298° West 344 396 33,500 480 Climbing Indianapolis Center
01:49PM 39.2614 -81.4150 298° West 339 390 34,000 240 Climbing Indianapolis Center
01:50PM 39.3061 -81.5236 298° West 344 396 34,000  Level Indianapolis Center
01:51PM 39.3503 -81.6336 297° West 348 400 34,000  Level Indianapolis Center
01:52PM 39.3953 -81.7453 298° West 351 404 34,000 720 Level Indianapolis Center
01:53PM 39.4475 -81.8761 297° West 345 397 35,500 960 Climbing Indianapolis Center
01:54PM 39.4875 -81.9769 297° West 327 376 36,000 240 Climbing Indianapolis Center
01:55PM 39.5294 -82.0819 297° West 326 375 36,000  Level Indianapolis Center
01:56PM 39.5708 -82.1836 298° West 328 377 36,000  Level Indianapolis Center
01:57PM 39.6144 -82.2925 297° West 335 386 36,000  Level Indianapolis Center
01:58PM 39.6583 -82.4033 297° West 341 392 36,000  Level Indianapolis Center
01:59PM 39.7011 -82.5142 297° West 341 392 36,000  Level Indianapolis Center
02:00PM 39.7525 -82.6436 297° West 343 395 36,000  Level Indianapolis Center
02:01PM 39.7961 -82.7544 297° West 343 395 36,000  Level Indianapolis Center
02:02PM 39.8392 -82.8642 297° West 339 390 36,000 -60 Level Indianapolis Center
02:03PM 39.8814 -82.9750 296° West 340 391 35,900  Descending Indianapolis Center
02:04PM 39.9244 -83.0856 297° West 341 392 36,000  Climbing Indianapolis Center
02:05PM 39.9608 -83.1983 293° West 342 394 36,000  Level Indianapolis Center
02:06PM 39.9597 -83.3208 269° West 337 388 36,000  Level Indianapolis Center
02:07PM 39.9542 -83.4661 267° West 342 394 36,000  Level Indianapolis Center
02:08PM 39.9489 -83.5861 267° West 344 396 36,000  Level Indianapolis Center
02:09PM 39.9444 -83.7094 267° West 343 395 36,000  Level Indianapolis Center
02:10PM 39.9400 -83.8344 267° West 343 395 36,000  Level Indianapolis Center
02:11PM 39.9353 -83.9597 267° West 344 396 36,000  Level Indianapolis Center
02:13PM 39.9306 -84.0861 267° West 345 397 36,000  Level Indianapolis Center
02:14PM 39.9247 -84.2336 267° West 348 400 36,000  Level Indianapolis Center
02:15PM 39.9192 -84.3600 267° West 348 400 36,000  Level Indianapolis Center
02:16PM 39.9142 -84.4869 267° West 348 400 36,000  Level Indianapolis Center
02:17PM 39.9064 -84.6147 266° West 350 403 36,000  Level Indianapolis Center
02:18PM 39.9008 -84.7414 267° West 350 403 36,000  Level Indianapolis Center
02:19PM 39.8950 -84.8694 267° West 350 403 36,000  Level Indianapolis Center
02:20PM 39.8886 -84.9975 266° West 352 405 36,000  Level Indianapolis Center
02:21PM 39.8833 -85.1253 267° West 351 404 36,000  Level Indianapolis Center
02:22PM 39.8758 -85.2553 266° West 355 409 36,000  Level Indianapolis Center
02:23PM 39.8675 -85.4069 266° West 357 411 36,000  Level Indianapolis Center
02:24PM 39.8606 -85.5372 266° West 359 413 36,000  Level Indianapolis Center
02:25PM 39.8544 -85.6672 267° West 358 412 36,000  Level Indianapolis Center
02:26PM 39.8461 -85.7969 265° West 358 412 36,000  Level Indianapolis Center
02:27PM 39.8392 -85.9342 266° West 363 418 36,000  Level Indianapolis Center
02:28PM 39.8328 -86.0644 266° West 361 415 36,000  Level Indianapolis Center
02:29PM 39.8244 -86.1944 265° West 361 415 36,000  Level Indianapolis Center
02:30PM 39.8167 -86.3258 266° West 363 418 36,000  Level Indianapolis Center
02:31PM 39.7933 -86.4536 257° West 364 419 36,000  Level Indianapolis Center
02:32PM 39.7614 -86.5806 252° West 368 423 36,000  Level Indianapolis Center
02:33PM 39.7247 -86.7306 252° West 364 419 36,000  Level Indianapolis Center
02:34PM 39.6939 -86.8561 252° West 364 419 36,000  Level Indianapolis Center
02:35PM 39.6622 -86.9842 252° West 370 426 36,000  Level Indianapolis Center
02:36PM 39.6303 -87.1103 252° West 369 425 36,000 -240 Level Indianapolis Center
02:37PM 39.5992 -87.2353 252° West 365 420 35,600 -780 Descending Indianapolis Center
02:38PM 39.5672 -87.3597 252° West 364 419 34,500 -1,020 Descending Indianapolis Center
02:39PM 39.5364 -87.4811 252° West 358 412 33,500 -1,140 Descending Indianapolis Center
02:40PM 39.4978 -87.6333 252° West 369 425 32,200 -1,320 Descending Indianapolis Center
02:41PM 39.4647 -87.7611 252° West 372 428 30,800 -1,440 Descending Indianapolis Center
02:42PM 39.4306 -87.8944 252° West 381 438 29,300 -1,440 Descending Indianapolis Center
02:43PM 39.4242 -87.9219 253° West 384 442 29,000 -1,080 Descending Kansas City Center
02:44PM 39.3897 -88.0517 251° West 385 443 28,000 -540 Descending Kansas City Center
02:45PM 39.3550 -88.1825 251° West 384 442 28,000  Level Kansas City Center
02:46PM 39.3200 -88.3128 251° West 383 441 28,000  Level Kansas City Center
02:47PM 39.2844 -88.4450 251° West 386 444 28,000  Level Kansas City Center
02:48PM 39.2500 -88.5772 251° West 388 447 28,000 -720 Level Kansas City Center
02:49PM 39.2125 -88.7178 251° West 390 449 26,600 -1,800 Descending Kansas City Center
02:50PM 39.1772 -88.8489 251° West 389 448 24,300 -2,460 Descending Kansas City Center
02:51PM 39.1369 -88.9978 251° West 382 440 21,600 -2,760 Descending Kansas City Center
02:52PM 39.1028 -89.1289 251° West 360 414 18,800 -2,760 Descending Kansas City Center
02:53PM 39.0836 -89.1461 215° Southwest 324 373 17,000 -2,640 Descending FAA TRACON SMA TRACON (SMA)
02:53PM 39.0753 -89.1811 253° West 332 382 16,200 -2,580 Descending FAA TRACON SMA TRACON (SMA)
02:53PM 39.0658 -89.2253 255° West 333 383 15,300 -2,400 Descending FAA TRACON SMA TRACON (SMA)
02:54PM 39.0586 -89.2603 255° West 331 381 14,600 -2,100 Descending FAA TRACON SMA TRACON (SMA)
02:54PM 39.0497 -89.2953 252° West 333 383 13,900 -2,400 Descending FAA TRACON SMA TRACON (SMA)
02:54PM 39.0383 -89.3392 252° West 336 387 13,000 -2,400 Descending FAA TRACON SMA TRACON (SMA)
02:55PM 39.0319 -89.3742 257° West 331 381 12,300 -1,680 Descending FAA TRACON SMA TRACON (SMA)
02:55PM 39.0244 -89.4083 254° West 326 375 11,900 -1,560 Descending FAA TRACON SMA TRACON (SMA)
02:55PM 39.0142 -89.4514 253° West 329 379 11,300 -1,380 Descending FAA TRACON SMA TRACON (SMA)
02:56PM 39.0047 -89.4856 250° West 327 376 11,000 -600 Descending FAA TRACON SMA TRACON (SMA)
02:56PM 38.9981 -89.5192 256° West 321 369 10,900 -180 Descending FAA TRACON SMA TRACON (SMA)
02:56PM 38.9836 -89.5589 245° Southwest 320 368 10,900 -300 Level FAA TRACON SMA TRACON (SMA)
02:57PM 38.9639 -89.5825 223° Southwest 317 365 10,700 -600 Descending FAA TRACON SMA TRACON (SMA)
02:57PM 38.9475 -89.6050 227° Southwest 299 344 10,500 -780 Descending FAA TRACON SMA TRACON (SMA)
02:57PM 38.9281 -89.6306 226° Southwest 273 314 10,200 -1,080 Descending FAA TRACON SMA TRACON (SMA)
02:58PM 38.9119 -89.6492 222° Southwest 250 288 9,800 -1,440 Descending FAA TRACON SMA TRACON (SMA)
02:58PM 38.8986 -89.6689 229° Southwest 245 282 9,300 -1,860 Descending FAA TRACON SMA TRACON (SMA)
02:58PM 38.8797 -89.6919 224° Southwest 238 274 8,600 -1,800 Descending FAA TRACON SMA TRACON (SMA)
02:59PM 38.8669 -89.7111 229° Southwest 235 270 8,100 -1,500 Descending FAA TRACON SMA TRACON (SMA)
02:59PM 38.8547 -89.7308 231° Southwest 231 266 7,600 -1,620 Descending FAA TRACON SMA TRACON (SMA)
02:59PM 38.8406 -89.7544 232° Southwest 222 255 7,000 -1,080 Descending FAA TRACON SMA TRACON (SMA)
03:00PM 38.8289 -89.7744 233° Southwest 225 259 6,900 -180 Descending FAA TRACON SMA TRACON (SMA)
03:00PM 38.8167 -89.7942 232° Southwest 227 261 6,900  Level FAA TRACON SMA TRACON (SMA)
03:00PM 38.8014 -89.8183 231° Southwest 227 261 6,900  Level FAA TRACON SMA TRACON (SMA)
03:01PM 38.7897 -89.8378 232° Southwest 226 260 6,900 120 Level FAA TRACON SMA TRACON (SMA)
03:01PM 38.7708 -89.8456 198° South 238 274 7,000  Climbing FAA TRACON SMA TRACON (SMA)
03:01PM 38.7458 -89.8422 174° South 237 273 6,900 -180 Descending FAA TRACON SMA TRACON (SMA)
03:02PM 38.7272 -89.8394 173° South 234 269 6,900  Level FAA TRACON SMA TRACON (SMA)
03:02PM 38.7078 -89.8367 174° South 230 265 6,900  Level FAA TRACON SMA TRACON (SMA)
03:02PM 38.6850 -89.8467 199° South 238 274 6,900 -180 Level FAA TRACON SMA TRACON (SMA)
03:03PM 38.6767 -89.8694 245° Southwest 236 272 6,800 -780 Descending FAA TRACON SMA TRACON (SMA)
03:03PM 38.6719 -89.8942 256° West 235 270 6,400 -1,500 Descending FAA TRACON SMA TRACON (SMA)
03:03PM 38.6658 -89.9247 256° West 231 266 5,800 -1,680 Descending FAA TRACON SMA TRACON (SMA)
03:04PM 38.6617 -89.9492 258° West 232 267 5,300 -1,500 Descending FAA TRACON SMA TRACON (SMA)
03:04PM 38.6558 -89.9744 254° West 239 275 4,800 -1,500 Descending FAA TRACON SMA TRACON (SMA)
03:04PM 38.6489 -90.0050 254° West 234 269 4,300 -1,380 Descending FAA TRACON SMA TRACON (SMA)
03:05PM 38.6433 -90.0289 253° West 230 265 3,900 -1,200 Descending FAA TRACON SMA TRACON (SMA)
03:05PM 38.6389 -90.0514 256° West 220 253 3,500 -780 Descending FAA TRACON SMA TRACON (SMA)
03:05PM 38.6356 -90.0722 258° West 203 234 3,400 -180 Descending FAA TRACON SMA TRACON (SMA)
03:06PM 38.6414 -90.0956 288° West 182 209 3,400  Level FAA TRACON SMA TRACON (SMA)
03:06PM 38.6483 -90.1125 298° West 174 200 3,400 -180 Level FAA TRACON SMA TRACON (SMA)
03:06PM 38.6583 -90.1331 302° West 175 201 3,300 -600 Descending FAA TRACON SMA TRACON (SMA)
03:07PM 38.6669 -90.1494 304° West 179 206 3,000 -960 Descending FAA TRACON SMA TRACON (SMA)
03:07PM 38.6750 -90.1658 302° West 179 206 2,700 -960 Descending FAA TRACON SMA TRACON (SMA)
03:07PM 38.6831 -90.1831 301° West 181 208 2,400 -1,080 Descending FAA TRACON SMA TRACON (SMA)
03:08PM 38.6939 -90.2039 304° West 182 209 2,000 -900 Descending FAA TRACON SMA TRACON (SMA)
03:08PM 38.7014 -90.2200 301° West 175 201 1,800 -900 Descending FAA TRACON SMA TRACON (SMA)
03:08PM 38.7106 -90.2372 304° West 157 181 1,400 -900 Descending FAA TRACON SMA TRACON (SMA)
03:09PM 38.7172 -90.2506 303° West 147 169 1,200 -780 Descending FAA TRACON SMA TRACON (SMA)
03:09PM 38.7239 -90.2639 303° West 144 166 900 -900 Descending FAA TRACON SMA TRACON (SMA)
03:09PM 38.7319 -90.2800 303° West 141 162 600 -900 Descending FAA TRACON SMA TRACON (SMA)
03:12PM 38.7333 -90.3667 247° West  Level FlightAware Approximate